createdAt,value
2022-10-23T00:01:20.494Z,100.00
2022-10-23T00:03:48.146Z,100.00
2022-10-23T00:06:14.890Z,100.00
2022-10-23T00:08:42.145Z,100.00
2022-10-23T00:11:14.418Z,100.00
2022-10-23T00:13:41.072Z,100.00
2022-10-23T00:16:08.569Z,100.00
2022-10-23T00:18:35.572Z,100.00
2022-10-23T00:21:02.636Z,100.00
2022-10-23T00:23:29.408Z,100.00
2022-10-23T00:25:56.080Z,100.00
2022-10-23T00:28:22.925Z,100.00
2022-10-23T00:30:49.578Z,100.00
2022-10-23T00:33:16.358Z,100.00
2022-10-23T00:35:43.444Z,100.00
2022-10-23T00:38:10.905Z,100.00
2022-10-23T00:40:39.253Z,100.00
2022-10-23T00:43:07.161Z,100.00
2022-10-23T00:45:34.328Z,100.00
2022-10-23T00:48:02.171Z,100.00
2022-10-23T00:50:32.366Z,100.00
2022-10-23T00:53:01.915Z,100.00
2022-10-23T00:55:30.324Z,100.00
2022-10-23T00:57:56.913Z,100.00
2022-10-23T01:00:40.364Z,100.00
2022-10-23T01:03:07.512Z,100.00
2022-10-23T01:06:04.911Z,100.00
2022-10-23T01:08:34.749Z,100.00
2022-10-23T01:11:01.278Z,100.00
2022-10-23T01:13:38.928Z,100.00
2022-10-23T01:16:13.944Z,100.00
2022-10-23T01:18:56.706Z,100.00
2022-10-23T01:21:52.681Z,100.00
2022-10-23T01:24:25.309Z,100.00
2022-10-23T01:27:20.078Z,100.00
2022-10-23T01:29:59.673Z,100.00
2022-10-23T01:32:44.505Z,100.00
2022-10-23T01:35:17.398Z,100.00
2022-10-23T01:38:13.480Z,100.00
2022-10-23T01:40:50.562Z,100.00
2022-10-23T01:43:24.646Z,100.00
2022-10-23T01:46:00.305Z,100.00
2022-10-23T01:48:29.597Z,100.00
2022-10-23T01:51:00.261Z,100.00
2022-10-23T01:53:31.130Z,100.00
2022-10-23T01:56:01.071Z,100.00
2022-10-23T01:58:30.162Z,100.00
2022-10-23T02:01:01.332Z,100.00
2022-10-23T02:03:30.922Z,100.00
2022-10-23T02:05:58.002Z,100.00
2022-10-23T02:08:25.695Z,100.00
2022-10-23T02:11:04.247Z,100.00
2022-10-23T02:13:44.066Z,100.00
2022-10-23T02:16:47.198Z,100.00
2022-10-23T02:19:35.429Z,100.00
2022-10-23T02:22:16.700Z,100.00
2022-10-23T02:24:54.233Z,100.00
2022-10-23T02:27:31.888Z,100.00
2022-10-23T02:30:10.227Z,100.00
2022-10-23T02:32:41.682Z,100.00
2022-10-23T02:35:11.352Z,100.00
2022-10-23T02:37:38.070Z,100.00
2022-10-23T02:40:08.193Z,100.00
2022-10-23T02:43:13.054Z,100.00
2022-10-23T02:45:58.854Z,100.00
2022-10-23T02:48:39.168Z,100.00
2022-10-23T02:51:14.858Z,100.00
2022-10-23T02:54:12.417Z,100.00
2022-10-23T02:57:04.050Z,100.00
2022-10-23T02:59:57.206Z,100.00
2022-10-23T03:02:44.055Z,100.00
2022-10-23T03:05:18.306Z,100.00
2022-10-23T03:07:46.116Z,100.00
2022-10-23T03:10:13.098Z,100.00
2022-10-23T03:12:40.389Z,100.00
2022-10-23T03:15:08.574Z,100.00
2022-10-23T03:17:35.227Z,100.00
2022-10-23T03:20:02.521Z,100.00
2022-10-23T03:22:29.101Z,100.00
2022-10-23T03:24:56.269Z,100.00
2022-10-23T03:27:22.883Z,100.00
2022-10-23T03:29:49.499Z,100.00
2022-10-23T03:32:17.429Z,100.00
2022-10-23T03:34:44.636Z,100.00
2022-10-23T03:37:11.390Z,100.00
2022-10-23T03:39:37.954Z,100.00
2022-10-23T03:42:04.571Z,100.00
2022-10-23T03:44:31.648Z,100.00
2022-10-23T03:46:58.389Z,100.00
2022-10-23T03:49:25.205Z,100.00
2022-10-23T03:51:52.551Z,100.00
2022-10-23T03:54:23.082Z,100.00
2022-10-23T03:56:52.516Z,100.00
2022-10-23T03:59:22.030Z,100.00
2022-10-23T04:01:49.525Z,100.00
2022-10-23T04:04:16.305Z,100.00
2022-10-23T04:06:43.520Z,100.00
2022-10-23T04:11:42.166Z,100.00
2022-10-23T04:14:12.315Z,100.00
2022-10-23T04:16:39.269Z,100.00
2022-10-23T04:19:06.273Z,100.00
2022-10-23T04:21:32.955Z,100.00
2022-10-23T04:24:00.767Z,100.00
2022-10-23T04:26:27.464Z,100.00
2022-10-23T04:28:54.028Z,100.00
2022-10-23T04:31:20.783Z,100.00
2022-10-23T04:33:47.435Z,100.00
2022-10-23T04:36:27.329Z,100.00
2022-10-23T04:38:53.887Z,100.00
2022-10-23T04:41:20.626Z,100.00
2022-10-23T04:43:47.301Z,100.00
2022-10-23T04:46:14.967Z,100.00
2022-10-23T04:48:45.241Z,100.00
2022-10-23T04:51:20.737Z,100.00
2022-10-23T04:53:57.930Z,100.00
2022-10-23T04:56:44.805Z,100.00
2022-10-23T04:59:15.695Z,100.00
2022-10-23T05:01:42.596Z,100.00
2022-10-23T05:04:09.758Z,100.00
2022-10-23T05:07:05.427Z,100.00
2022-10-23T05:09:50.346Z,100.00
2022-10-23T05:12:30.308Z,100.00
2022-10-23T05:14:56.990Z,100.00
2022-10-23T05:17:32.166Z,100.00
2022-10-23T05:20:01.606Z,100.00
2022-10-23T05:22:32.480Z,100.00
2022-10-23T05:25:01.912Z,100.00
2022-10-23T05:27:32.770Z,100.00
2022-10-23T05:29:59.452Z,100.00
2022-10-23T05:32:31.678Z,100.00
2022-10-23T05:35:01.243Z,100.00
2022-10-23T05:37:29.837Z,100.00
2022-10-23T05:40:08.472Z,100.00
2022-10-23T05:42:39.566Z,100.00
2022-10-23T05:45:08.674Z,100.00
2022-10-23T05:48:10.604Z,100.00
2022-10-23T05:51:24.930Z,100.00
2022-10-23T05:54:08.314Z,100.00
2022-10-23T05:56:43.118Z,100.00
2022-10-23T05:59:22.130Z,100.00
2022-10-23T06:01:53.092Z,100.00
2022-10-23T06:04:35.265Z,100.00
2022-10-23T06:07:29.190Z,100.00
2022-10-23T06:09:59.585Z,100.00
2022-10-23T06:12:26.926Z,100.00
2022-10-23T06:14:53.614Z,100.00
2022-10-23T06:17:24.450Z,100.00
2022-10-23T06:19:51.179Z,100.00
2022-10-23T06:22:21.211Z,100.00
2022-10-23T06:24:53.850Z,100.00
2022-10-23T06:27:26.373Z,100.00
2022-10-23T06:29:54.362Z,100.00
2022-10-23T06:32:20.944Z,100.00
2022-10-23T06:35:00.558Z,100.00
2022-10-23T06:37:28.578Z,100.00
2022-10-23T06:40:06.280Z,100.00
2022-10-23T06:42:57.732Z,100.00
2022-10-23T06:45:43.012Z,100.00
2022-10-23T06:48:32.730Z,100.00
2022-10-23T06:51:09.369Z,100.00
2022-10-23T06:53:41.915Z,100.00
2022-10-23T06:56:29.076Z,100.00
2022-10-23T06:58:56.566Z,100.00
2022-10-23T07:01:23.962Z,100.00
2022-10-23T07:03:50.771Z,100.00
2022-10-23T07:06:22.073Z,100.00
2022-10-23T07:08:49.656Z,100.00
2022-10-23T07:11:45.515Z,100.00
2022-10-23T07:14:12.738Z,100.00
2022-10-23T07:16:40.077Z,100.00
2022-10-23T07:19:08.826Z,100.00
2022-10-23T07:22:15.876Z,100.00
2022-10-23T07:24:42.805Z,100.00
2022-10-23T07:27:29.686Z,100.00
2022-10-23T07:30:00.657Z,100.00
2022-10-23T07:32:31.855Z,100.00
2022-10-23T07:35:17.697Z,100.00
2022-10-23T07:38:00.492Z,100.00
2022-10-23T07:40:30.467Z,100.00
2022-10-23T07:42:57.373Z,100.00
2022-10-23T07:45:25.002Z,100.00
2022-10-23T07:47:52.570Z,100.00
2022-10-23T07:50:21.595Z,100.00
2022-10-23T07:52:48.652Z,100.00
2022-10-23T07:55:17.613Z,100.00
2022-10-23T07:57:48.847Z,100.00
2022-10-23T08:00:41.339Z,100.00
2022-10-23T08:03:25.992Z,100.00
2022-10-23T08:05:54.796Z,100.00
2022-10-23T08:08:23.806Z,100.00
2022-10-23T08:10:55.119Z,100.00
2022-10-23T08:13:27.193Z,100.00
2022-10-23T08:16:02.347Z,100.00
2022-10-23T08:18:52.362Z,100.00
2022-10-23T08:21:19.594Z,100.00
2022-10-23T08:23:47.837Z,100.00
2022-10-23T08:26:15.444Z,100.00
2022-10-23T08:28:42.046Z,100.00
2022-10-23T08:31:15.399Z,100.00
2022-10-23T08:33:52.876Z,100.00
2022-10-23T08:36:26.851Z,100.00
2022-10-23T08:38:55.607Z,100.00
2022-10-23T08:41:30.182Z,100.00
2022-10-23T08:44:05.458Z,100.00
2022-10-23T08:46:49.822Z,100.00
2022-10-23T08:50:14.241Z,100.00
2022-10-23T08:53:02.670Z,100.00
2022-10-23T08:56:01.716Z,100.00
2022-10-23T08:58:58.946Z,100.00
2022-10-23T09:01:40.661Z,99.49
2022-10-23T09:04:12.527Z,98.08
2022-10-23T09:06:41.859Z,97.63
2022-10-23T09:12:41.931Z,100.00
2022-10-23T09:15:34.944Z,100.00
2022-10-23T09:18:06.676Z,100.00
2022-10-23T09:20:35.446Z,100.00
2022-10-23T09:23:12.677Z,100.00
2022-10-23T09:25:41.069Z,100.00
2022-10-23T09:28:21.577Z,100.00
2022-10-23T09:30:49.528Z,100.00
2022-10-23T09:33:27.229Z,100.00
2022-10-23T09:36:02.587Z,100.00
2022-10-23T09:38:33.808Z,100.00
2022-10-23T09:41:21.387Z,100.00
2022-10-23T09:43:59.339Z,100.00
2022-10-23T09:46:46.134Z,100.00
2022-10-23T09:49:27.347Z,100.00
2022-10-23T09:52:12.236Z,100.00
2022-10-23T09:54:43.953Z,100.00
2022-10-23T09:57:23.446Z,100.00
2022-10-23T09:59:56.678Z,100.00
2022-10-23T10:02:32.511Z,98.75
2022-10-23T10:05:33.043Z,89.84
2022-10-23T10:08:10.762Z,85.69
2022-10-23T10:10:48.273Z,84.39
2022-10-23T10:13:33.025Z,81.76
2022-10-23T10:16:11.895Z,79.39
2022-10-23T10:18:56.302Z,80.61
2022-10-23T10:21:38.940Z,81.81
2022-10-23T10:24:25.375Z,84.96
2022-10-23T10:27:10.330Z,86.32
2022-10-23T10:29:51.957Z,88.30
2022-10-23T10:32:46.334Z,84.60
2022-10-23T10:35:19.082Z,79.09
2022-10-23T10:37:55.028Z,74.34
2022-10-23T10:40:32.642Z,70.62
2022-10-23T10:43:08.405Z,68.94
2022-10-23T10:45:48.074Z,67.64
2022-10-23T10:48:25.839Z,62.89
2022-10-23T10:51:21.670Z,59.16
2022-10-23T10:54:09.232Z,56.66
2022-10-23T10:56:40.618Z,56.22
2022-10-23T10:59:23.590Z,57.14
2022-10-23T11:02:05.682Z,54.26
2022-10-23T11:04:40.915Z,52.85
2022-10-23T11:07:14.295Z,51.85
2022-10-23T11:09:42.631Z,53.05
2022-10-23T11:12:27.426Z,51.91
2022-10-23T11:14:54.172Z,53.93
2022-10-23T11:17:37.335Z,54.75
2022-10-23T11:20:14.090Z,57.73
2022-10-23T11:22:52.628Z,54.81
2022-10-23T11:25:25.051Z,57.67
2022-10-23T11:28:18.558Z,55.63
2022-10-23T11:31:02.766Z,53.10
2022-10-23T11:33:44.865Z,54.85
2022-10-23T11:36:18.070Z,52.78
2022-10-23T11:38:50.972Z,51.24
2022-10-23T11:41:25.508Z,54.77
2022-10-23T11:43:57.242Z,52.81
2022-10-23T11:46:25.342Z,52.44
2022-10-23T11:48:53.839Z,52.16
2022-10-23T11:51:28.166Z,54.31
2022-10-23T11:54:24.867Z,54.43
2022-10-23T11:56:51.583Z,50.65
2022-10-23T11:59:33.275Z,49.23
2022-10-23T12:02:03.320Z,53.30
2022-10-23T12:04:41.107Z,50.47
2022-10-23T12:07:23.829Z,51.89
2022-10-23T12:09:53.257Z,51.42
2022-10-23T12:12:42.442Z,51.29
2022-10-23T12:15:12.057Z,50.69
2022-10-23T12:17:40.223Z,51.24
2022-10-23T12:20:22.704Z,50.48
2022-10-23T12:23:01.425Z,48.58
2022-10-23T12:25:55.829Z,40.65
2022-10-23T12:28:40.276Z,31.33
2022-10-23T12:31:29.980Z,31.94
2022-10-23T12:34:07.398Z,32.81
2022-10-23T12:36:45.996Z,29.17
2022-10-23T12:39:37.355Z,23.02
2022-10-23T12:42:05.030Z,21.13
2022-10-23T12:44:32.031Z,20.88
2022-10-23T12:47:02.066Z,21.88
2022-10-23T12:49:33.619Z,24.44
2022-10-23T12:52:01.627Z,23.72
2022-10-23T12:54:30.561Z,23.97
2022-10-23T12:56:57.413Z,22.53
2022-10-23T12:59:33.271Z,24.79
2022-10-23T13:02:00.260Z,26.75
2022-10-23T13:04:30.231Z,30.99
2022-10-23T13:06:59.840Z,32.89
2022-10-23T13:09:33.762Z,34.38
2022-10-23T13:12:24.532Z,35.89
2022-10-23T13:15:08.052Z,39.21
2022-10-23T13:17:44.170Z,40.48
2022-10-23T13:20:11.128Z,41.31
2022-10-23T13:22:40.661Z,39.00
2022-10-23T13:25:26.164Z,40.28
2022-10-23T13:28:11.667Z,41.11
2022-10-23T13:30:48.186Z,43.02
2022-10-23T13:33:35.196Z,42.49
2022-10-23T13:36:23.153Z,45.16
2022-10-23T13:38:59.195Z,46.11
2022-10-23T13:41:28.083Z,40.32
2022-10-23T13:43:54.732Z,40.98
2022-10-23T13:46:24.395Z,38.33
2022-10-23T13:48:51.493Z,32.95
2022-10-23T13:51:28.297Z,32.49
2022-10-23T13:53:57.110Z,31.98
2022-10-23T13:56:27.746Z,30.89
2022-10-23T13:58:54.601Z,31.17
2022-10-23T14:01:28.321Z,32.11
2022-10-23T14:03:56.741Z,31.95
2022-10-23T14:06:24.122Z,32.49
2022-10-23T14:08:51.152Z,33.96
2022-10-23T14:11:19.857Z,35.53
2022-10-23T14:13:46.964Z,34.66
2022-10-23T14:16:18.005Z,37.63
2022-10-23T14:18:44.773Z,39.66
2022-10-23T14:21:14.138Z,40.16
2022-10-23T14:23:40.755Z,39.97
2022-10-23T14:26:10.390Z,41.16
2022-10-23T14:28:37.627Z,42.00
2022-10-23T14:31:06.070Z,41.41
2022-10-23T14:33:32.805Z,41.18
2022-10-23T14:36:00.055Z,40.56
2022-10-23T14:38:27.215Z,39.17
2022-10-23T14:40:53.907Z,41.40
2022-10-23T14:43:21.327Z,45.63
2022-10-23T14:45:47.915Z,50.13
2022-10-23T14:48:14.546Z,54.64
2022-10-23T14:50:46.580Z,59.17
2022-10-23T14:53:14.034Z,63.42
2022-10-23T14:55:40.628Z,67.26
2022-10-23T14:58:07.229Z,70.84
2022-10-23T15:00:33.823Z,72.93
2022-10-23T15:03:00.567Z,76.13
2022-10-23T15:05:29.294Z,79.67
2022-10-23T15:07:56.557Z,83.80
2022-10-23T15:10:23.125Z,86.78
2022-10-23T15:12:49.726Z,89.56
2022-10-23T15:15:16.789Z,92.95
2022-10-23T15:17:43.755Z,96.67
2022-10-23T15:20:10.677Z,98.23
2022-10-23T15:22:37.271Z,99.74
2022-10-23T15:25:04.135Z,100.00
2022-10-23T15:27:30.768Z,100.00
2022-10-23T15:29:57.383Z,100.00
2022-10-23T15:32:23.998Z,100.00
2022-10-23T15:34:52.062Z,100.00
2022-10-23T15:37:18.667Z,100.00
2022-10-23T15:39:45.286Z,100.00
2022-10-23T15:42:12.434Z,100.00
2022-10-23T15:44:40.224Z,100.00
2022-10-23T15:47:07.196Z,100.00
2022-10-23T15:49:34.067Z,100.00
2022-10-23T15:52:00.947Z,100.00
2022-10-23T15:54:30.625Z,100.00
2022-10-23T15:56:59.699Z,100.00
2022-10-23T15:59:26.951Z,100.00
2022-10-23T16:01:54.101Z,100.00
2022-10-23T16:04:21.286Z,100.00
2022-10-23T16:06:48.640Z,100.00
2022-10-23T16:09:16.004Z,100.00
2022-10-23T16:11:43.683Z,100.00
2022-10-23T16:14:14.460Z,100.00
2022-10-23T16:16:41.314Z,100.00
2022-10-23T16:19:08.334Z,100.00
2022-10-23T16:21:36.515Z,100.00
2022-10-23T16:24:05.428Z,100.00
2022-10-23T16:26:32.310Z,100.00
2022-10-23T16:29:01.594Z,100.00
2022-10-23T16:31:29.574Z,100.00
2022-10-23T16:34:00.929Z,100.00
2022-10-23T16:36:28.169Z,100.00
2022-10-23T16:39:20.858Z,100.00
2022-10-23T16:42:06.085Z,100.00
2022-10-23T16:45:05.481Z,100.00
2022-10-23T16:47:32.722Z,100.00
2022-10-23T16:49:59.640Z,100.00
2022-10-23T16:52:27.841Z,100.00
2022-10-23T16:54:54.401Z,100.00
2022-10-23T16:57:20.967Z,100.00
2022-10-23T16:59:47.588Z,100.00
2022-10-23T17:02:14.665Z,100.00
2022-10-23T17:04:41.341Z,100.00
2022-10-23T17:07:08.044Z,100.00
2022-10-23T17:09:35.728Z,100.00
2022-10-23T17:12:02.412Z,100.00
2022-10-23T17:14:29.362Z,100.00
2022-10-23T17:17:05.596Z,100.00
2022-10-23T17:19:44.159Z,100.00
2022-10-23T17:22:12.690Z,100.00
2022-10-23T17:24:41.440Z,100.00
2022-10-23T17:27:08.478Z,100.00
2022-10-23T17:29:36.027Z,100.00
2022-10-23T17:32:03.159Z,100.00
2022-10-23T17:34:29.747Z,100.00
2022-10-23T17:36:56.599Z,100.00
2022-10-23T17:39:26.234Z,100.00
2022-10-23T17:41:53.686Z,100.00
2022-10-23T17:44:22.437Z,100.00
2022-10-23T17:46:53.829Z,100.00
2022-10-23T17:49:21.859Z,100.00
2022-10-23T17:51:55.994Z,100.00
2022-10-23T17:54:23.515Z,100.00
2022-10-23T17:56:50.135Z,100.00
2022-10-23T17:59:22.395Z,100.00
2022-10-23T18:01:49.906Z,100.00
2022-10-23T18:04:18.877Z,100.00
2022-10-23T18:06:48.485Z,100.00
2022-10-23T18:09:15.378Z,100.00
2022-10-23T18:11:48.147Z,100.00
2022-10-23T18:14:19.234Z,100.00
2022-10-23T18:16:46.211Z,100.00
2022-10-23T18:19:14.139Z,100.00
2022-10-23T18:21:40.863Z,100.00
2022-10-23T18:24:07.893Z,100.00
2022-10-23T18:26:35.177Z,100.00
2022-10-23T18:29:04.895Z,100.00
2022-10-23T18:31:31.592Z,100.00
2022-10-23T18:34:07.861Z,100.00
2022-10-23T18:36:39.689Z,100.00
2022-10-23T18:39:08.224Z,100.00
2022-10-23T18:41:37.758Z,100.00
2022-10-23T18:44:04.698Z,100.00
2022-10-23T18:46:32.022Z,100.00
2022-10-23T18:48:58.863Z,100.00
2022-10-23T18:51:28.318Z,100.00
2022-10-23T18:53:55.709Z,100.00
2022-10-23T18:56:25.946Z,100.00
2022-10-23T18:59:01.733Z,100.00
2022-10-23T19:01:30.731Z,100.00
2022-10-23T19:03:59.455Z,100.00
2022-10-23T19:06:26.583Z,100.00
2022-10-23T19:08:53.598Z,100.00
2022-10-23T19:11:22.482Z,100.00
2022-10-23T19:13:49.094Z,100.00
2022-10-23T19:16:27.992Z,100.00
2022-10-23T19:19:26.655Z,100.00
2022-10-23T19:21:54.320Z,100.00
2022-10-23T19:24:25.327Z,100.00
2022-10-23T19:26:52.135Z,100.00
2022-10-23T19:29:21.625Z,100.00
2022-10-23T19:31:49.330Z,100.00
2022-10-23T19:34:22.502Z,100.00
2022-10-23T19:36:50.709Z,100.00
2022-10-23T19:39:17.517Z,100.00
2022-10-23T19:41:44.841Z,100.00
2022-10-23T19:44:13.115Z,100.00
2022-10-23T19:46:40.034Z,100.00
2022-10-23T19:49:06.951Z,100.00
2022-10-23T19:51:33.528Z,100.00
2022-10-23T19:54:00.332Z,100.00
2022-10-23T19:56:27.303Z,100.00
2022-10-23T19:58:54.059Z,100.00
2022-10-23T20:01:24.383Z,100.00
2022-10-23T20:03:51.452Z,100.00
2022-10-23T20:06:21.027Z,100.00
2022-10-23T20:08:47.926Z,100.00
2022-10-23T20:11:20.657Z,100.00
2022-10-23T20:13:47.754Z,100.00
2022-10-23T20:16:28.826Z,100.00
2022-10-23T20:18:56.262Z,100.00
2022-10-23T20:21:24.379Z,100.00
2022-10-23T20:23:51.386Z,100.00
2022-10-23T20:26:21.203Z,100.00
2022-10-23T20:28:51.289Z,100.00
2022-10-23T20:31:19.509Z,100.00
2022-10-23T20:33:46.670Z,100.00
2022-10-23T20:36:28.165Z,100.00
2022-10-23T20:38:56.395Z,100.00
2022-10-23T20:41:24.981Z,100.00
2022-10-23T20:43:51.743Z,100.00
2022-10-23T20:46:18.411Z,100.00
2022-10-23T20:48:45.640Z,100.00
2022-10-23T20:51:15.751Z,100.00
2022-10-23T20:53:43.150Z,100.00
2022-10-23T20:56:16.205Z,100.00
2022-10-23T20:58:43.440Z,100.00
2022-10-23T21:01:13.175Z,100.00
2022-10-23T21:03:39.972Z,100.00
2022-10-23T21:06:12.950Z,100.00
2022-10-23T21:08:40.498Z,100.00
2022-10-23T21:11:10.332Z,100.00
2022-10-23T21:13:37.113Z,100.00
2022-10-23T21:16:15.757Z,100.00
2022-10-23T21:18:46.918Z,100.00
2022-10-23T21:21:19.262Z,100.00
2022-10-23T21:23:47.457Z,100.00
2022-10-23T21:26:15.166Z,100.00
2022-10-23T21:28:50.877Z,100.00
2022-10-23T21:31:27.734Z,100.00
2022-10-23T21:33:54.293Z,100.00
2022-10-23T21:36:23.678Z,100.00
2022-10-23T21:38:56.294Z,100.00
2022-10-23T21:41:26.308Z,100.00
2022-10-23T21:43:54.849Z,100.00
2022-10-23T21:46:22.570Z,100.00
2022-10-23T21:48:49.690Z,100.00
2022-10-23T21:51:23.944Z,100.00
2022-10-23T21:53:52.581Z,100.00
2022-10-23T21:56:24.801Z,100.00
2022-10-23T21:58:51.873Z,100.00
2022-10-23T22:01:18.529Z,100.00
2022-10-23T22:03:45.158Z,100.00
2022-10-23T22:06:21.115Z,100.00
2022-10-23T22:08:48.142Z,100.00
2022-10-23T22:11:15.973Z,100.00
2022-10-23T22:13:43.713Z,100.00
2022-10-23T22:16:11.096Z,100.00
2022-10-23T22:18:37.782Z,100.00
2022-10-23T22:21:08.489Z,100.00
2022-10-23T22:23:35.415Z,100.00
2022-10-23T22:26:07.195Z,100.00
2022-10-23T22:28:33.840Z,100.00
2022-10-23T22:31:01.742Z,100.00
2022-10-23T22:33:29.157Z,100.00
2022-10-23T22:36:02.857Z,100.00
2022-10-23T22:38:31.710Z,100.00
2022-10-23T22:41:02.008Z,100.00
2022-10-23T22:43:29.271Z,100.00
2022-10-23T22:46:07.265Z,100.00
2022-10-23T22:48:34.757Z,100.00
2022-10-23T22:51:01.842Z,100.00
2022-10-23T22:53:28.607Z,100.00
2022-10-23T22:55:56.226Z,100.00
2022-10-23T22:58:24.228Z,100.00
2022-10-23T23:00:52.264Z,100.00
2022-10-23T23:03:19.065Z,100.00
2022-10-23T23:05:47.813Z,100.00
2022-10-23T23:08:15.140Z,100.00
2022-10-23T23:10:41.747Z,100.00
2022-10-23T23:13:08.350Z,100.00
2022-10-23T23:15:40.994Z,100.00
2022-10-23T23:18:07.682Z,100.00
2022-10-23T23:20:35.352Z,100.00
2022-10-23T23:23:02.129Z,100.00
2022-10-23T23:25:29.406Z,100.00
2022-10-23T23:27:56.401Z,100.00
2022-10-23T23:30:23.895Z,100.00
2022-10-23T23:32:52.559Z,100.00
2022-10-23T23:35:20.818Z,100.00
2022-10-23T23:37:47.456Z,100.00
2022-10-23T23:40:14.494Z,100.00
2022-10-23T23:42:41.211Z,100.00
2022-10-23T23:45:14.599Z,100.00
2022-10-23T23:47:42.343Z,100.00
2022-10-23T23:50:11.514Z,100.00
2022-10-23T23:52:38.641Z,100.00
2022-10-23T23:55:05.546Z,100.00
2022-10-23T23:57:32.320Z,100.00
2022-10-23T23:59:59.915Z,100.00
